sensor_id;sensor_type;location;lat;lon;timestamp;P1;P2;P0
69205;PMS7003;56319;48.920;2.332;2023-08-17T00:02:04;6.00;6.00;5.00
69205;PMS7003;56319;48.920;2.332;2023-08-17T00:04:30;7.00;5.25;5.00
69205;PMS7003;56319;48.920;2.332;2023-08-17T00:06:55;8.25;8.25;7.50
69205;PMS7003;56319;48.920;2.332;2023-08-17T00:09:20;7.00;7.00;6.00
69205;PMS7003;56319;48.920;2.332;2023-08-17T00:11:47;8.00;6.75;5.00
69205;PMS7003;56319;48.920;2.332;2023-08-17T00:14:13;7.25;6.00;4.75
69205;PMS7003;56319;48.920;2.332;2023-08-17T00:16:38;8.00;5.75;5.25
69205;PMS7003;56319;48.920;2.332;2023-08-17T00:19:04;6.00;6.00;5.75
69205;PMS7003;56319;48.920;2.332;2023-08-17T00:21:29;7.25;5.75;5.00
69205;PMS7003;56319;48.920;2.332;2023-08-17T00:23:55;8.50;8.25;7.00
69205;PMS7003;56319;48.920;2.332;2023-08-17T00:26:21;7.00;7.00;6.00
69205;PMS7003;56319;48.920;2.332;2023-08-17T00:28:47;7.00;5.75;5.00
69205;PMS7003;56319;48.920;2.332;2023-08-17T00:31:12;8.00;6.50;6.00
69205;PMS7003;56319;48.920;2.332;2023-08-17T00:33:38;5.00;5.00;4.50
69205;PMS7003;56319;48.920;2.332;2023-08-17T00:36:03;6.75;6.75;6.00
69205;PMS7003;56319;48.920;2.332;2023-08-17T00:38:29;7.25;6.00;5.50
69205;PMS7003;56319;48.920;2.332;2023-08-17T00:40:55;7.00;5.75;5.00
69205;PMS7003;56319;48.920;2.332;2023-08-17T00:43:20;5.25;5.25;5.00
69205;PMS7003;56319;48.920;2.332;2023-08-17T00:45:46;7.00;6.00;5.75
69205;PMS7003;56319;48.920;2.332;2023-08-17T00:48:12;7.75;7.00;6.00
69205;PMS7003;56319;48.920;2.332;2023-08-17T00:50:38;7.00;7.00;6.00
69205;PMS7003;56319;48.920;2.332;2023-08-17T00:53:05;6.00;6.00;5.00
69205;PMS7003;56319;48.920;2.332;2023-08-17T00:55:32;8.00;6.00;6.00
69205;PMS7003;56319;48.920;2.332;2023-08-17T00:57:58;6.25;6.25;6.00
69205;PMS7003;56319;48.920;2.332;2023-08-17T01:00:24;7.75;7.25;6.00
69205;PMS7003;56319;48.920;2.332;2023-08-17T01:02:53;8.00;8.00;6.00
69205;PMS7003;56319;48.920;2.332;2023-08-17T01:05:19;6.25;6.25;6.00
69205;PMS7003;56319;48.920;2.332;2023-08-17T01:07:44;9.25;7.25;6.00
69205;PMS7003;56319;48.920;2.332;2023-08-17T01:10:10;6.00;6.00;5.00
69205;PMS7003;56319;48.920;2.332;2023-08-17T01:12:37;7.50;6.75;5.75
69205;PMS7003;56319;48.920;2.332;2023-08-17T01:15:10;7.75;7.75;6.50
69205;PMS7003;56319;48.920;2.332;2023-08-17T01:17:44;7.00;6.50;5.75
69205;PMS7003;56319;48.920;2.332;2023-08-17T01:20:17;7.00;7.00;5.75
69205;PMS7003;56319;48.920;2.332;2023-08-17T01:22:45;8.50;8.00;7.00
69205;PMS7003;56319;48.920;2.332;2023-08-17T01:25:13;5.00;5.00;4.25
69205;PMS7003;56319;48.920;2.332;2023-08-17T01:27:40;7.50;7.50;6.25
69205;PMS7003;56319;48.920;2.332;2023-08-17T01:30:07;6.00;5.75;5.00
69205;PMS7003;56319;48.920;2.332;2023-08-17T01:32:37;6.75;6.25;5.50
69205;PMS7003;56319;48.920;2.332;2023-08-17T01:35:16;7.50;6.25;5.00
69205;PMS7003;56319;48.920;2.332;2023-08-17T01:38:04;7.25;6.50;5.00
69205;PMS7003;56319;48.920;2.332;2023-08-17T01:40:34;8.50;8.00;7.00
69205;PMS7003;56319;48.920;2.332;2023-08-17T01:43:01;6.00;6.00;5.00
69205;PMS7003;56319;48.920;2.332;2023-08-17T01:45:27;7.00;7.00;6.00
69205;PMS7003;56319;48.920;2.332;2023-08-17T01:47:54;7.75;7.25;5.75
69205;PMS7003;56319;48.920;2.332;2023-08-17T01:50:20;7.75;7.75;6.00
69205;PMS7003;56319;48.920;2.332;2023-08-17T01:52:46;8.50;8.50;7.25
69205;PMS7003;56319;48.920;2.332;2023-08-17T01:55:11;7.50;7.50;6.25
69205;PMS7003;56319;48.920;2.332;2023-08-17T01:57:37;7.50;6.50;6.00
69205;PMS7003;56319;48.920;2.332;2023-08-17T02:00:03;6.00;6.00;5.00
69205;PMS7003;56319;48.920;2.332;2023-08-17T02:02:30;7.25;7.25;6.25
69205;PMS7003;56319;48.920;2.332;2023-08-17T02:04:56;6.50;6.50;5.25
69205;PMS7003;56319;48.920;2.332;2023-08-17T02:07:21;7.50;7.50;6.50
69205;PMS7003;56319;48.920;2.332;2023-08-17T02:09:47;7.25;6.25;5.25
69205;PMS7003;56319;48.920;2.332;2023-08-17T02:12:12;10.00;7.50;6.25
69205;PMS7003;56319;48.920;2.332;2023-08-17T02:14:38;9.00;9.00;7.00
69205;PMS7003;56319;48.920;2.332;2023-08-17T02:17:03;9.00;7.75;6.75
69205;PMS7003;56319;48.920;2.332;2023-08-17T02:19:31;6.50;6.50;5.25
69205;PMS7003;56319;48.920;2.332;2023-08-17T02:21:58;7.00;7.00;5.50
69205;PMS7003;56319;48.920;2.332;2023-08-17T02:24:24;6.25;6.25;5.25
69205;PMS7003;56319;48.920;2.332;2023-08-17T02:26:49;5.25;5.25;5.00
69205;PMS7003;56319;48.920;2.332;2023-08-17T02:29:15;8.00;8.00;6.00
69205;PMS7003;56319;48.920;2.332;2023-08-17T02:31:40;8.00;6.50;5.75
69205;PMS7003;56319;48.920;2.332;2023-08-17T02:34:06;9.00;8.00;6.00
69205;PMS7003;56319;48.920;2.332;2023-08-17T02:36:34;8.25;7.50;7.00
69205;PMS7003;56319;48.920;2.332;2023-08-17T02:39:00;8.00;7.50;6.50
69205;PMS7003;56319;48.920;2.332;2023-08-17T02:41:25;7.25;7.25;6.00
69205;PMS7003;56319;48.920;2.332;2023-08-17T02:43:51;8.75;8.75;7.25
69205;PMS7003;56319;48.920;2.332;2023-08-17T02:46:16;8.00;8.00;7.00
69205;PMS7003;56319;48.920;2.332;2023-08-17T02:48:42;9.25;9.00;7.50
69205;PMS7003;56319;48.920;2.332;2023-08-17T02:51:07;7.50;7.50;6.75
69205;PMS7003;56319;48.920;2.332;2023-08-17T02:53:33;10.50;8.75;7.50
69205;PMS7003;56319;48.920;2.332;2023-08-17T02:55:58;8.25;7.50;5.50
69205;PMS7003;56319;48.920;2.332;2023-08-17T02:58:24;8.00;7.00;6.75
69205;PMS7003;56319;48.920;2.332;2023-08-17T03:00:51;6.25;6.25;5.75
69205;PMS7003;56319;48.920;2.332;2023-08-17T03:03:17;7.25;7.25;7.00
69205;PMS7003;56319;48.920;2.332;2023-08-17T03:05:43;10.50;9.00;7.00
69205;PMS7003;56319;48.920;2.332;2023-08-17T03:08:08;8.25;8.25;7.25
69205;PMS7003;56319;48.920;2.332;2023-08-17T03:10:34;9.25;9.00;7.00
69205;PMS7003;56319;48.920;2.332;2023-08-17T03:12:59;9.00;9.00;7.00
69205;PMS7003;56319;48.920;2.332;2023-08-17T03:15:25;9.75;9.00;7.50
69205;PMS7003;56319;48.920;2.332;2023-08-17T03:17:50;9.25;8.00;7.00
69205;PMS7003;56319;48.920;2.332;2023-08-17T03:20:16;8.00;8.00;5.00
69205;PMS7003;56319;48.920;2.332;2023-08-17T03:22:41;7.75;7.75;7.00
69205;PMS7003;56319;48.920;2.332;2023-08-17T03:25:07;10.50;9.00;7.00
69205;PMS7003;56319;48.920;2.332;2023-08-17T03:27:33;13.25;10.00;7.75
69205;PMS7003;56319;48.920;2.332;2023-08-17T03:29:59;7.50;7.50;7.00
69205;PMS7003;56319;48.920;2.332;2023-08-17T03:32:24;9.00;9.00;7.25
69205;PMS7003;56319;48.920;2.332;2023-08-17T03:34:50;8.25;7.50;7.00
69205;PMS7003;56319;48.920;2.332;2023-08-17T03:37:15;11.75;10.75;9.75
69205;PMS7003;56319;48.920;2.332;2023-08-17T03:39:41;10.25;8.00;7.25
69205;PMS7003;56319;48.920;2.332;2023-08-17T03:42:06;9.25;9.25;7.75
69205;PMS7003;56319;48.920;2.332;2023-08-17T03:44:32;9.00;7.25;6.00
69205;PMS7003;56319;48.920;2.332;2023-08-17T03:46:57;8.00;8.00;7.00
69205;PMS7003;56319;48.920;2.332;2023-08-17T03:49:23;10.25;10.25;7.50
69205;PMS7003;56319;48.920;2.332;2023-08-17T03:51:48;8.25;8.25;7.00
69205;PMS7003;56319;48.920;2.332;2023-08-17T03:54:14;13.25;10.00;8.25
69205;PMS7003;56319;48.920;2.332;2023-08-17T03:56:39;9.00;9.00;7.75
69205;PMS7003;56319;48.920;2.332;2023-08-17T03:59:05;11.25;8.75;7.25
69205;PMS7003;56319;48.920;2.332;2023-08-17T04:01:31;10.75;10.00;8.00
69205;PMS7003;56319;48.920;2.332;2023-08-17T04:03:56;8.75;8.25;6.00
69205;PMS7003;56319;48.920;2.332;2023-08-17T04:06:22;9.25;8.50;7.50
69205;PMS7003;56319;48.920;2.332;2023-08-17T04:08:47;10.00;10.00;8.75
69205;PMS7003;56319;48.920;2.332;2023-08-17T04:11:13;9.00;8.50;7.00
69205;PMS7003;56319;48.920;2.332;2023-08-17T04:13:38;8.75;8.00;7.00
69205;PMS7003;56319;48.920;2.332;2023-08-17T04:16:04;10.25;9.00;7.00
69205;PMS7003;56319;48.920;2.332;2023-08-17T04:18:29;13.25;11.00;7.75
69205;PMS7003;56319;48.920;2.332;2023-08-17T04:20:55;11.25;10.00;8.25
69205;PMS7003;56319;48.920;2.332;2023-08-17T04:23:21;9.00;9.00;8.00
69205;PMS7003;56319;48.920;2.332;2023-08-17T04:25:46;8.50;8.00;6.75
69205;PMS7003;56319;48.920;2.332;2023-08-17T04:28:13;10.00;9.25;8.00
69205;PMS7003;56319;48.920;2.332;2023-08-17T04:30:39;10.25;9.00;8.00
69205;PMS7003;56319;48.920;2.332;2023-08-17T04:33:04;8.75;8.75;7.50
69205;PMS7003;56319;48.920;2.332;2023-08-17T04:35:30;10.50;9.50;8.00
69205;PMS7003;56319;48.920;2.332;2023-08-17T04:37:55;7.00;7.00;6.00
69205;PMS7003;56319;48.920;2.332;2023-08-17T04:40:21;12.00;8.25;7.50
69205;PMS7003;56319;48.920;2.332;2023-08-17T04:42:46;8.50;8.25;7.25
69205;PMS7003;56319;48.920;2.332;2023-08-17T04:45:12;11.50;11.25;9.50
69205;PMS7003;56319;48.920;2.332;2023-08-17T04:47:38;10.25;9.00;7.25
69205;PMS7003;56319;48.920;2.332;2023-08-17T04:50:04;9.00;8.00;8.00
69205;PMS7003;56319;48.920;2.332;2023-08-17T04:52:30;10.75;9.00;8.00
69205;PMS7003;56319;48.920;2.332;2023-08-17T04:54:55;9.50;9.50;8.00
69205;PMS7003;56319;48.920;2.332;2023-08-17T04:57:21;9.00;9.00;7.00
69205;PMS7003;56319;48.920;2.332;2023-08-17T04:59:46;11.25;10.00;8.25
69205;PMS7003;56319;48.920;2.332;2023-08-17T05:02:12;9.75;9.00;7.00
69205;PMS7003;56319;48.920;2.332;2023-08-17T05:04:37;10.75;9.25;8.00
69205;PMS7003;56319;48.920;2.332;2023-08-17T05:07:05;9.00;8.75;8.00
69205;PMS7003;56319;48.920;2.332;2023-08-17T05:09:30;8.50;8.50;7.00
69205;PMS7003;56319;48.920;2.332;2023-08-17T05:11:56;11.75;11.00;8.00
69205;PMS7003;56319;48.920;2.332;2023-08-17T05:14:21;11.50;10.25;8.00
69205;PMS7003;56319;48.920;2.332;2023-08-17T05:16:47;13.00;11.00;9.00
69205;PMS7003;56319;48.920;2.332;2023-08-17T05:19:13;9.25;9.25;8.25
69205;PMS7003;56319;48.920;2.332;2023-08-17T05:21:38;11.75;10.00;8.00
69205;PMS7003;56319;48.920;2.332;2023-08-17T05:24:04;12.25;10.00;7.00
69205;PMS7003;56319;48.920;2.332;2023-08-17T05:26:30;10.00;10.00;8.00
69205;PMS7003;56319;48.920;2.332;2023-08-17T05:28:55;10.25;8.25;7.00
69205;PMS7003;56319;48.920;2.332;2023-08-17T05:31:21;14.50;11.00;8.00
69205;PMS7003;56319;48.920;2.332;2023-08-17T05:33:46;9.75;9.50;8.00
69205;PMS7003;56319;48.920;2.332;2023-08-17T05:36:12;9.00;9.00;8.00
69205;PMS7003;56319;48.920;2.332;2023-08-17T05:38:38;9.50;9.50;8.75
69205;PMS7003;56319;48.920;2.332;2023-08-17T05:41:03;11.00;9.75;7.25
69205;PMS7003;56319;48.920;2.332;2023-08-17T05:43:29;10.50;10.50;8.50
69205;PMS7003;56319;48.920;2.332;2023-08-17T05:45:56;9.00;9.00;8.00
69205;PMS7003;56319;48.920;2.332;2023-08-17T05:48:24;10.75;10.25;8.75
69205;PMS7003;56319;48.920;2.332;2023-08-17T05:50:50;9.00;9.00;8.00
69205;PMS7003;56319;48.920;2.332;2023-08-17T05:53:15;10.00;10.00;8.75
69205;PMS7003;56319;48.920;2.332;2023-08-17T05:55:41;10.25;10.25;8.75
69205;PMS7003;56319;48.920;2.332;2023-08-17T05:58:06;10.25;9.50;7.25
69205;PMS7003;56319;48.920;2.332;2023-08-17T06:00:32;12.25;10.75;8.25
69205;PMS7003;56319;48.920;2.332;2023-08-17T06:02:57;10.75;10.25;8.25
69205;PMS7003;56319;48.920;2.332;2023-08-17T06:05:28;9.50;9.50;7.75
69205;PMS7003;56319;48.920;2.332;2023-08-17T06:07:55;10.50;8.00;6.75
69205;PMS7003;56319;48.920;2.332;2023-08-17T06:10:22;7.75;7.75;7.00
69205;PMS7003;56319;48.920;2.332;2023-08-17T06:12:52;11.00;10.00;8.75
69205;PMS7003;56319;48.920;2.332;2023-08-17T06:15:19;13.00;10.50;9.00
69205;PMS7003;56319;48.920;2.332;2023-08-17T06:17:44;10.75;9.25;8.00
69205;PMS7003;56319;48.920;2.332;2023-08-17T06:20:10;9.75;8.25;7.50
69205;PMS7003;56319;48.920;2.332;2023-08-17T06:22:37;12.50;11.50;9.50
69205;PMS7003;56319;48.920;2.332;2023-08-17T06:25:02;10.25;10.00;8.50
69205;PMS7003;56319;48.920;2.332;2023-08-17T06:27:31;12.75;11.00;9.00
69205;PMS7003;56319;48.920;2.332;2023-08-17T06:29:56;10.50;10.50;8.75
69205;PMS7003;56319;48.920;2.332;2023-08-17T06:32:22;10.75;10.00;8.25
69205;PMS7003;56319;48.920;2.332;2023-08-17T06:34:47;14.00;10.00;7.50
69205;PMS7003;56319;48.920;2.332;2023-08-17T06:37:13;9.25;8.75;7.75
69205;PMS7003;56319;48.920;2.332;2023-08-17T06:39:38;10.25;10.00;8.00
69205;PMS7003;56319;48.920;2.332;2023-08-17T06:42:04;8.00;6.25;5.25
69205;PMS7003;56319;48.920;2.332;2023-08-17T06:44:29;13.50;11.25;9.00
69205;PMS7003;56319;48.920;2.332;2023-08-17T06:46:55;10.75;10.00;8.00
69205;PMS7003;56319;48.920;2.332;2023-08-17T06:49:21;10.50;9.00;7.75
69205;PMS7003;56319;48.920;2.332;2023-08-17T06:51:47;9.75;9.75;7.50
69205;PMS7003;56319;48.920;2.332;2023-08-17T06:54:13;9.75;9.75;8.25
69205;PMS7003;56319;48.920;2.332;2023-08-17T06:56:38;9.75;9.75;8.50
69205;PMS7003;56319;48.920;2.332;2023-08-17T06:59:04;9.50;8.25;7.00
69205;PMS7003;56319;48.920;2.332;2023-08-17T07:01:29;10.50;10.00;8.00
69205;PMS7003;56319;48.920;2.332;2023-08-17T07:03:54;12.50;10.00;9.00
69205;PMS7003;56319;48.920;2.332;2023-08-17T07:06:20;10.75;10.25;8.50
69205;PMS7003;56319;48.920;2.332;2023-08-17T07:08:46;13.75;12.25;9.00
69205;PMS7003;56319;48.920;2.332;2023-08-17T07:11:11;14.00;11.50;10.00
69205;PMS7003;56319;48.920;2.332;2023-08-17T07:13:37;11.50;10.25;9.00
69205;PMS7003;56319;48.920;2.332;2023-08-17T07:16:02;11.75;11.50;9.00
69205;PMS7003;56319;48.920;2.332;2023-08-17T07:18:28;9.25;8.25;7.25
69205;PMS7003;56319;48.920;2.332;2023-08-17T07:20:53;10.00;9.00;8.00
69205;PMS7003;56319;48.920;2.332;2023-08-17T07:23:18;11.00;11.00;9.50
69205;PMS7003;56319;48.920;2.332;2023-08-17T07:25:44;11.00;11.00;9.00
69205;PMS7003;56319;48.920;2.332;2023-08-17T07:28:09;11.00;10.50;8.50
69205;PMS7003;56319;48.920;2.332;2023-08-17T07:30:35;11.50;11.50;9.25
69205;PMS7003;56319;48.920;2.332;2023-08-17T07:33:00;11.00;10.75;8.75
69205;PMS7003;56319;48.920;2.332;2023-08-17T07:35:26;11.25;10.50;9.00
69205;PMS7003;56319;48.920;2.332;2023-08-17T07:37:51;11.25;11.00;9.50
69205;PMS7003;56319;48.920;2.332;2023-08-17T07:40:17;10.25;9.50;8.50
69205;PMS7003;56319;48.920;2.332;2023-08-17T07:42:42;11.75;11.00;9.25
69205;PMS7003;56319;48.920;2.332;2023-08-17T07:45:08;14.00;10.00;9.00
69205;PMS7003;56319;48.920;2.332;2023-08-17T07:47:34;13.75;12.50;10.00
69205;PMS7003;56319;48.920;2.332;2023-08-17T07:50:03;12.50;11.75;8.75
69205;PMS7003;56319;48.920;2.332;2023-08-17T07:52:29;10.00;10.00;8.00
69205;PMS7003;56319;48.920;2.332;2023-08-17T07:54:55;13.50;9.50;8.50
69205;PMS7003;56319;48.920;2.332;2023-08-17T07:57:20;11.25;11.00;8.25
69205;PMS7003;56319;48.920;2.332;2023-08-17T07:59:46;10.00;8.25;7.00
69205;PMS7003;56319;48.920;2.332;2023-08-17T08:02:11;11.50;10.75;9.00
69205;PMS7003;56319;48.920;2.332;2023-08-17T08:04:38;12.00;12.00;10.00
69205;PMS7003;56319;48.920;2.332;2023-08-17T08:07:03;11.00;9.75;9.00
69205;PMS7003;56319;48.920;2.332;2023-08-17T08:09:29;11.50;10.00;9.00
69205;PMS7003;56319;48.920;2.332;2023-08-17T08:11:55;11.00;10.50;8.00
69205;PMS7003;56319;48.920;2.332;2023-08-17T08:14:20;12.00;11.50;9.50
69205;PMS7003;56319;48.920;2.332;2023-08-17T08:16:46;9.75;9.00;8.00
69205;PMS7003;56319;48.920;2.332;2023-08-17T08:19:12;11.00;11.00;8.75
69205;PMS7003;56319;48.920;2.332;2023-08-17T08:21:38;9.50;9.50;8.25
69205;PMS7003;56319;48.920;2.332;2023-08-17T08:24:03;13.00;11.75;9.75
69205;PMS7003;56319;48.920;2.332;2023-08-17T08:26:29;14.25;12.75;10.00
69205;PMS7003;56319;48.920;2.332;2023-08-17T08:28:55;13.25;12.25;9.00
69205;PMS7003;56319;48.920;2.332;2023-08-17T08:31:20;11.50;11.50;10.00
69205;PMS7003;56319;48.920;2.332;2023-08-17T08:33:46;11.00;10.75;9.25
69205;PMS7003;56319;48.920;2.332;2023-08-17T08:36:11;11.50;11.50;8.50
69205;PMS7003;56319;48.920;2.332;2023-08-17T08:38:37;15.50;13.50;10.00
69205;PMS7003;56319;48.920;2.332;2023-08-17T08:41:05;13.00;11.50;8.75
69205;PMS7003;56319;48.920;2.332;2023-08-17T08:43:33;12.25;12.25;10.00
69205;PMS7003;56319;48.920;2.332;2023-08-17T08:45:59;14.50;12.25;9.00
69205;PMS7003;56319;48.920;2.332;2023-08-17T08:48:26;13.00;13.00;10.50
69205;PMS7003;56319;48.920;2.332;2023-08-17T08:50:54;13.25;13.25;11.00
69205;PMS7003;56319;48.920;2.332;2023-08-17T08:53:27;12.75;11.00;8.50
69205;PMS7003;56319;48.920;2.332;2023-08-17T08:55:57;16.00;13.25;10.00
69205;PMS7003;56319;48.920;2.332;2023-08-17T08:58:24;13.25;12.50;9.25
69205;PMS7003;56319;48.920;2.332;2023-08-17T09:00:51;11.75;10.50;9.00
69205;PMS7003;56319;48.920;2.332;2023-08-17T09:03:17;12.00;12.00;9.75
69205;PMS7003;56319;48.920;2.332;2023-08-17T09:05:47;14.00;14.00;10.00
69205;PMS7003;56319;48.920;2.332;2023-08-17T09:08:14;12.50;11.00;9.00
69205;PMS7003;56319;48.920;2.332;2023-08-17T09:10:41;9.50;7.75;7.00
69205;PMS7003;56319;48.920;2.332;2023-08-17T09:13:07;12.00;10.75;8.00
69205;PMS7003;56319;48.920;2.332;2023-08-17T09:15:34;12.00;11.25;9.25
69205;PMS7003;56319;48.920;2.332;2023-08-17T09:18:00;11.50;10.50;8.00
69205;PMS7003;56319;48.920;2.332;2023-08-17T09:23:12;12.50;12.50;9.75
69205;PMS7003;56319;48.920;2.332;2023-08-17T09:25:40;9.75;9.75;8.25
69205;PMS7003;56319;48.920;2.332;2023-08-17T09:28:09;14.00;12.25;10.00
69205;PMS7003;56319;48.920;2.332;2023-08-17T09:33:25;9.25;9.25;8.25
69205;PMS7003;56319;48.920;2.332;2023-08-17T09:35:55;10.25;10.25;8.75
69205;PMS7003;56319;48.920;2.332;2023-08-17T09:38:22;10.75;10.75;8.75
69205;PMS7003;56319;48.920;2.332;2023-08-17T09:40:48;9.50;9.50;8.50
69205;PMS7003;56319;48.920;2.332;2023-08-17T09:43:14;13.75;13.50;11.00
69205;PMS7003;56319;48.920;2.332;2023-08-17T09:45:42;15.75;12.25;9.75
69205;PMS7003;56319;48.920;2.332;2023-08-17T09:48:11;9.75;9.00;7.00
69205;PMS7003;56319;48.920;2.332;2023-08-17T09:50:40;11.75;11.75;9.00
69205;PMS7003;56319;48.920;2.332;2023-08-17T09:53:07;11.50;11.50;9.00
69205;PMS7003;56319;48.920;2.332;2023-08-17T09:55:39;11.50;11.25;9.00
69205;PMS7003;56319;48.920;2.332;2023-08-17T09:58:07;12.75;12.00;9.00
69205;PMS7003;56319;48.920;2.332;2023-08-17T10:00:33;11.00;9.25;7.50
69205;PMS7003;56319;48.920;2.332;2023-08-17T10:03:01;8.50;8.00;7.00
69205;PMS7003;56319;48.920;2.332;2023-08-17T10:05:28;13.25;11.00;9.00
69205;PMS7003;56319;48.920;2.332;2023-08-17T10:07:57;15.50;12.25;9.00
69205;PMS7003;56319;48.920;2.332;2023-08-17T10:10:25;12.50;11.25;10.00
69205;PMS7003;56319;48.920;2.332;2023-08-17T10:18:41;13.25;13.25;11.25
69205;PMS7003;56319;48.920;2.332;2023-08-17T10:21:18;12.75;10.00;8.25
69205;PMS7003;56319;48.920;2.332;2023-08-17T10:23:51;12.50;9.00;9.00
69205;PMS7003;56319;48.920;2.332;2023-08-17T10:26:17;12.00;11.00;8.75
69205;PMS7003;56319;48.920;2.332;2023-08-17T10:28:43;15.00;14.00;11.50
69205;PMS7003;56319;48.920;2.332;2023-08-17T10:31:10;8.75;7.75;7.50
69205;PMS7003;56319;48.920;2.332;2023-08-17T10:33:36;15.00;12.00;9.00
69205;PMS7003;56319;48.920;2.332;2023-08-17T10:36:03;13.25;13.25;9.75
69205;PMS7003;56319;48.920;2.332;2023-08-17T10:38:30;11.50;11.50;9.50
69205;PMS7003;56319;48.920;2.332;2023-08-17T10:43:52;14.75;13.00;10.25
69205;PMS7003;56319;48.920;2.332;2023-08-17T10:46:19;12.75;12.75;11.00
69205;PMS7003;56319;48.920;2.332;2023-08-17T10:48:44;12.50;11.25;9.75
69205;PMS7003;56319;48.920;2.332;2023-08-17T10:51:10;11.50;11.25;9.00
69205;PMS7003;56319;48.920;2.332;2023-08-17T10:53:38;11.50;11.00;8.25
69205;PMS7003;56319;48.920;2.332;2023-08-17T10:56:11;14.00;13.25;10.75
69205;PMS7003;56319;48.920;2.332;2023-08-17T10:58:38;12.75;10.75;9.00
69205;PMS7003;56319;48.920;2.332;2023-08-17T11:01:06;11.00;11.00;9.25
69205;PMS7003;56319;48.920;2.332;2023-08-17T11:03:32;11.00;11.00;9.50
69205;PMS7003;56319;48.920;2.332;2023-08-17T11:05:58;14.00;12.00;10.00
69205;PMS7003;56319;48.920;2.332;2023-08-17T11:11:31;14.50;14.50;10.00
69205;PMS7003;56319;48.920;2.332;2023-08-17T11:13:57;14.50;13.25;10.00
69205;PMS7003;56319;48.920;2.332;2023-08-17T11:16:22;14.25;14.25;11.00
69205;PMS7003;56319;48.920;2.332;2023-08-17T11:18:48;15.50;12.75;10.00
69205;PMS7003;56319;48.920;2.332;2023-08-17T11:21:15;10.25;9.75;9.00
69205;PMS7003;56319;48.920;2.332;2023-08-17T11:23:41;14.00;12.75;11.00
69205;PMS7003;56319;48.920;2.332;2023-08-17T11:26:07;15.25;14.50;9.25
69205;PMS7003;56319;48.920;2.332;2023-08-17T11:28:33;14.00;12.50;10.25
69205;PMS7003;56319;48.920;2.332;2023-08-17T11:31:02;12.50;12.00;10.50
69205;PMS7003;56319;48.920;2.332;2023-08-17T11:33:29;13.75;13.75;11.00
69205;PMS7003;56319;48.920;2.332;2023-08-17T11:35:57;15.00;12.50;10.00
69205;PMS7003;56319;48.920;2.332;2023-08-17T11:38:24;12.50;12.50;9.25
69205;PMS7003;56319;48.920;2.332;2023-08-17T11:40:51;13.50;13.50;11.00
69205;PMS7003;56319;48.920;2.332;2023-08-17T11:43:17;12.25;11.00;9.00
69205;PMS7003;56319;48.920;2.332;2023-08-17T11:45:43;15.00;15.00;11.00
69205;PMS7003;56319;48.920;2.332;2023-08-17T11:48:09;13.00;12.50;9.50
69205;PMS7003;56319;48.920;2.332;2023-08-17T11:50:35;14.00;12.00;10.00
69205;PMS7003;56319;48.920;2.332;2023-08-17T11:53:00;16.00;14.00;12.75
69205;PMS7003;56319;48.920;2.332;2023-08-17T11:55:26;14.50;12.00;10.00
69205;PMS7003;56319;48.920;2.332;2023-08-17T11:57:52;19.75;16.50;12.00
69205;PMS7003;56319;48.920;2.332;2023-08-17T12:00:19;15.50;12.00;10.00
69205;PMS7003;56319;48.920;2.332;2023-08-17T12:02:48;15.25;13.50;11.00
69205;PMS7003;56319;48.920;2.332;2023-08-17T12:05:18;14.50;12.75;10.00
69205;PMS7003;56319;48.920;2.332;2023-08-17T12:07:45;15.25;14.00;10.75
69205;PMS7003;56319;48.920;2.332;2023-08-17T12:10:11;13.50;12.75;10.00
69205;PMS7003;56319;48.920;2.332;2023-08-17T12:12:37;12.25;11.50;10.25
69205;PMS7003;56319;48.920;2.332;2023-08-17T12:15:04;12.75;12.25;10.00
69205;PMS7003;56319;48.920;2.332;2023-08-17T12:17:30;15.50;11.50;9.50
69205;PMS7003;56319;48.920;2.332;2023-08-17T12:19:55;14.50;14.50;10.00
69205;PMS7003;56319;48.920;2.332;2023-08-17T12:22:24;11.00;11.00;8.75
69205;PMS7003;56319;48.920;2.332;2023-08-17T12:24:51;16.00;14.75;11.00
69205;PMS7003;56319;48.920;2.332;2023-08-17T12:27:17;19.75;12.00;9.00
69205;PMS7003;56319;48.920;2.332;2023-08-17T12:29:46;12.25;12.25;10.50
69205;PMS7003;56319;48.920;2.332;2023-08-17T12:32:13;11.25;11.25;9.25
69205;PMS7003;56319;48.920;2.332;2023-08-17T12:34:40;11.00;10.50;9.00
69205;PMS7003;56319;48.920;2.332;2023-08-17T12:37:08;9.50;9.00;7.00
69205;PMS7003;56319;48.920;2.332;2023-08-17T12:39:35;13.75;13.00;10.00
69205;PMS7003;56319;48.920;2.332;2023-08-17T12:42:01;12.25;12.25;10.25
69205;PMS7003;56319;48.920;2.332;2023-08-17T12:44:27;13.00;12.75;11.00
69205;PMS7003;56319;48.920;2.332;2023-08-17T12:46:53;12.25;12.25;8.00
69205;PMS7003;56319;48.920;2.332;2023-08-17T12:49:18;13.25;12.00;10.00
69205;PMS7003;56319;48.920;2.332;2023-08-17T12:51:44;12.75;12.75;9.75
69205;PMS7003;56319;48.920;2.332;2023-08-17T12:54:09;12.00;12.00;10.00
69205;PMS7003;56319;48.920;2.332;2023-08-17T12:56:35;10.25;10.25;8.50
69205;PMS7003;56319;48.920;2.332;2023-08-17T12:59:00;16.25;14.50;11.50
69205;PMS7003;56319;48.920;2.332;2023-08-17T13:01:26;15.50;12.00;9.75
69205;PMS7003;56319;48.920;2.332;2023-08-17T13:03:51;11.50;11.00;9.00
69205;PMS7003;56319;48.920;2.332;2023-08-17T13:06:17;12.50;12.00;9.75
69205;PMS7003;56319;48.920;2.332;2023-08-17T13:08:42;9.75;8.50;7.25
69205;PMS7003;56319;48.920;2.332;2023-08-17T13:11:08;14.25;13.25;10.00
69205;PMS7003;56319;48.920;2.332;2023-08-17T13:13:33;13.25;13.00;10.75
69205;PMS7003;56319;48.920;2.332;2023-08-17T13:15:59;11.00;11.00;8.25
69205;PMS7003;56319;48.920;2.332;2023-08-17T13:18:26;11.25;11.25;9.00
69205;PMS7003;56319;48.920;2.332;2023-08-17T13:20:53;12.25;12.00;9.25
69205;PMS7003;56319;48.920;2.332;2023-08-17T13:23:19;13.50;11.75;9.00
69205;PMS7003;56319;48.920;2.332;2023-08-17T13:25:45;12.00;12.00;9.50
69205;PMS7003;56319;48.920;2.332;2023-08-17T13:28:10;11.50;11.50;9.50
69205;PMS7003;56319;48.920;2.332;2023-08-17T13:30:37;10.25;10.25;8.00
69205;PMS7003;56319;48.920;2.332;2023-08-17T13:33:04;13.25;10.50;9.00
69205;PMS7003;56319;48.920;2.332;2023-08-17T13:35:31;12.25;11.00;9.00
69205;PMS7003;56319;48.920;2.332;2023-08-17T13:37:58;9.75;9.75;8.00
69205;PMS7003;56319;48.920;2.332;2023-08-17T13:40:23;12.00;11.25;10.25
69205;PMS7003;56319;48.920;2.332;2023-08-17T13:42:49;12.75;12.75;9.00
69205;PMS7003;56319;48.920;2.332;2023-08-17T13:45:15;11.25;11.00;9.75
69205;PMS7003;56319;48.920;2.332;2023-08-17T13:47:41;10.50;10.50;8.75
69205;PMS7003;56319;48.920;2.332;2023-08-17T13:50:06;10.00;10.00;8.00
69205;PMS7003;56319;48.920;2.332;2023-08-17T13:52:32;11.00;11.00;10.00
69205;PMS7003;56319;48.920;2.332;2023-08-17T13:54:58;11.75;11.75;9.00
69205;PMS7003;56319;48.920;2.332;2023-08-17T13:57:23;11.50;11.50;8.75
69205;PMS7003;56319;48.920;2.332;2023-08-17T13:59:49;12.00;12.00;9.00
69205;PMS7003;56319;48.920;2.332;2023-08-17T14:02:14;10.00;10.00;8.50
69205;PMS7003;56319;48.920;2.332;2023-08-17T14:04:40;12.25;11.25;9.25
69205;PMS7003;56319;48.920;2.332;2023-08-17T14:07:05;9.25;9.25;7.75
69205;PMS7003;56319;48.920;2.332;2023-08-17T14:09:31;11.00;11.00;9.25
69205;PMS7003;56319;48.920;2.332;2023-08-17T14:11:57;10.75;10.50;8.00
69205;PMS7003;56319;48.920;2.332;2023-08-17T14:14:22;10.75;10.75;8.25
69205;PMS7003;56319;48.920;2.332;2023-08-17T14:16:48;9.50;9.50;8.50
69205;PMS7003;56319;48.920;2.332;2023-08-17T14:19:13;10.50;10.25;8.50